Time;durP1;ratioP1;P1;durP2;ratioP2;P2;SDS_P1;SDS_P2;PMS_P1;PMS_P2;Temp;Humidity;BMP_temperature;BMP_pressure;BME280_temperature;BME280_humidity;BME280_pressure;Samples;Min_cycle;Max_cycle;Signal;HPM_P1;HPM_P2
2021/04/30 00:00:48;;;;;;;6.18;5.50;;;7.90;77.00;;;;;;5051387;28;20530;-63
2021/04/30 00:03:13;;;;;;;5.63;5.00;;;7.90;75.60;;;;;;5051908;28;20044;-63
2021/04/30 00:05:39;;;;;;;7.07;5.22;;;8.00;76.10;;;;;;5051423;28;20036;-65
2021/04/30 00:08:05;;;;;;;5.25;4.75;;;8.00;76.30;;;;;;5052735;28;20044;-64
2021/04/30 00:10:30;;;;;;;5.72;4.47;;;8.00;75.90;;;;;;5069984;28;20032;-63
2021/04/30 00:12:56;;;;;;;4.85;4.25;;;8.00;76.20;;;;;;5067681;28;20040;-62
2021/04/30 00:15:22;;;;;;;5.72;5.13;;;8.00;76.10;;;;;;5049904;28;20914;-62
2021/04/30 00:17:48;;;;;;;4.95;4.50;;;8.00;76.20;;;;;;5051007;28;20017;-64
2021/04/30 00:20:15;;;;;;;7.70;5.40;;;8.00;76.20;;;;;;5069502;28;20381;-61
2021/04/30 00:22:40;;;;;;;6.10;4.82;;;8.10;75.30;;;;;;5070919;28;20048;-65
2021/04/30 00:25:07;;;;;;;5.65;5.10;;;8.10;75.20;;;;;;5060664;28;20025;-63
2021/04/30 00:27:32;;;;;;;5.18;4.60;;;8.00;74.70;;;;;;5051067;28;20393;-64
2021/04/30 00:29:58;;;;;;;5.72;5.13;;;8.00;75.10;;;;;;5057020;28;20032;-63
2021/04/30 00:32:24;;;;;;;6.07;5.10;;;8.00;75.10;;;;;;5068183;28;20120;-63
2021/04/30 00:34:49;;;;;;;8.02;5.82;;;8.00;75.10;;;;;;5050629;28;20036;-63
2021/04/30 00:37:15;;;;;;;6.75;5.90;;;8.00;75.10;;;;;;5051616;28;20474;-62
2021/04/30 00:39:41;;;;;;;5.70;5.10;;;8.00;74.70;;;;;;5054280;28;20037;-65
2021/04/30 00:42:07;;;;;;;6.68;5.60;;;7.90;74.90;;;;;;5057249;28;20074;-63
2021/04/30 00:44:32;;;;;;;5.40;4.90;;;7.90;74.70;;;;;;5052319;28;20509;-64
2021/04/30 00:46:59;;;;;;;6.03;5.40;;;7.90;74.80;;;;;;5053421;28;20033;-63
2021/04/30 00:49:24;;;;;;;6.68;5.53;;;7.90;74.80;;;;;;5051342;28;20100;-63
2021/04/30 00:51:50;;;;;;;9.10;6.22;;;7.90;74.40;;;;;;5050941;28;20113;-61
2021/04/30 00:54:17;;;;;;;7.35;6.28;;;8.00;73.40;;;;;;5057774;28;20032;-63
2021/04/30 00:56:43;;;;;;;7.03;5.65;;;8.00;73.50;;;;;;5049917;28;20025;-63
2021/04/30 00:59:09;;;;;;;8.10;6.22;;;8.00;73.40;;;;;;5050704;28;20051;-63
2021/04/30 01:01:35;;;;;;;7.03;5.63;;;8.00;73.30;;;;;;5050808;28;20049;-63
2021/04/30 01:04:02;;;;;;;7.13;5.80;;;7.90;73.50;;;;;;5050034;28;20083;-61
2021/04/30 01:06:27;;;;;;;6.88;6.18;;;7.90;73.10;;;;;;5050860;28;20473;-61
2021/04/30 01:08:53;;;;;;;8.80;6.28;;;7.90;72.70;;;;;;5050071;28;20033;-63
2021/04/30 01:11:19;;;;;;;6.78;5.85;;;7.80;73.00;;;;;;5050435;28;20033;-62
2021/04/30 01:13:44;;;;;;;6.38;5.30;;;7.80;73.10;;;;;;5060472;28;20036;-63
2021/04/30 01:16:10;;;;;;;7.63;6.13;;;7.70;73.70;;;;;;5056416;28;20124;-63
2021/04/30 01:18:44;;;;;;;8.40;6.18;;;7.70;72.70;;;;;;5049284;28;20025;-63
2021/04/30 01:21:11;;;;;;;7.70;6.30;;;7.70;72.60;;;;;;5050999;28;20083;-65
2021/04/30 01:23:50;;;;;;;9.10;6.43;;;7.70;72.30;;;;;;5050500;28;20536;-63
2021/04/30 01:26:17;;;;;;;7.23;5.80;;;7.70;71.90;;;;;;5053730;28;20072;-64
2021/04/30 01:28:43;;;;;;;11.30;6.18;;;7.70;71.60;;;;;;5053651;28;20338;-65
2021/04/30 01:31:09;;;;;;;7.40;5.93;;;7.70;71.70;;;;;;5066837;28;20135;-62
2021/04/30 01:33:34;;;;;;;8.20;6.07;;;7.70;71.80;;;;;;5052863;28;20037;-62
2021/04/30 01:36:00;;;;;;;7.70;6.05;;;7.70;71.70;;;;;;5049151;28;20172;-63
2021/04/30 01:38:26;;;;;;;7.63;5.60;;;7.60;71.60;;;;;;5050662;28;20057;-62
2021/04/30 01:40:52;;;;;;;7.07;5.93;;;7.60;71.80;;;;;;5048951;28;20104;-64
2021/04/30 01:43:19;;;;;;;8.57;6.43;;;7.60;71.80;;;;;;5050054;28;20140;-62
2021/04/30 01:45:55;;;;;;;7.60;6.13;;;7.60;71.70;;;;;;5049951;28;20067;-64
2021/04/30 01:48:29;;;;;;;7.40;5.97;;;7.60;71.10;;;;;;5054129;28;20021;-62
2021/04/30 01:50:56;;;;;;;9.15;6.80;;;7.60;72.10;;;;;;5059603;28;20036;-63
2021/04/30 01:53:24;;;;;;;7.60;6.53;;;7.60;72.40;;;;;;5059958;28;20028;-63
2021/04/30 01:55:51;;;;;;;7.03;6.10;;;7.50;72.20;;;;;;5057656;28;20103;-61
2021/04/30 01:58:17;;;;;;;7.13;6.38;;;7.50;72.40;;;;;;5058148;28;20481;-61
2021/04/30 02:00:46;;;;;;;8.55;6.47;;;7.50;72.60;;;;;;5057625;28;20033;-65
2021/04/30 02:03:12;;;;;;;8.65;6.60;;;7.50;72.80;;;;;;5056062;28;20039;-64
2021/04/30 02:05:40;;;;;;;7.05;6.07;;;7.50;72.70;;;;;;5056274;28;20021;-61
2021/04/30 02:08:08;;;;;;;7.10;5.80;;;7.40;72.40;;;;;;5060591;28;20033;-63
2021/04/30 02:10:35;;;;;;;8.68;7.28;;;7.40;72.70;;;;;;5059631;28;20033;-63
2021/04/30 02:13:01;;;;;;;8.65;7.32;;;7.40;73.10;;;;;;5057003;28;20035;-62
2021/04/30 02:15:29;;;;;;;9.93;6.80;;;7.40;72.20;;;;;;5057176;28;20103;-64
2021/04/30 02:17:55;;;;;;;8.73;7.40;;;7.40;72.30;;;;;;5056320;28;20425;-64
2021/04/30 02:20:22;;;;;;;7.40;6.25;;;7.40;72.60;;;;;;5057545;28;20029;-61
2021/04/30 02:22:48;;;;;;;8.25;6.75;;;7.40;72.80;;;;;;5060859;28;20033;-63
2021/04/30 02:25:15;;;;;;;7.72;6.68;;;7.40;73.20;;;;;;5057626;28;20103;-63
2021/04/30 02:27:42;;;;;;;8.45;6.03;;;7.40;73.20;;;;;;5049203;28;20478;-65
2021/04/30 02:30:10;;;;;;;9.40;6.93;;;7.40;73.60;;;;;;5055980;28;20462;-63
2021/04/30 02:32:37;;;;;;;8.80;7.82;;;7.40;74.00;;;;;;5049692;28;20182;-63
2021/04/30 02:35:09;;;;;;;9.82;7.80;;;7.40;75.60;;;;;;5048966;28;20033;-63
2021/04/30 02:37:35;;;;;;;9.63;7.50;;;7.40;76.20;;;;;;5070831;28;20032;-62
2021/04/30 02:40:00;;;;;;;9.70;7.68;;;7.40;78.40;;;;;;5065829;28;20035;-63
2021/04/30 02:42:26;;;;;;;10.93;8.25;;;7.40;79.00;;;;;;5059220;28;20028;-64
2021/04/30 02:44:52;;;;;;;11.02;8.45;;;7.30;79.50;;;;;;5064813;28;20029;-62
2021/04/30 02:47:20;;;;;;;11.93;8.70;;;7.30;78.50;;;;;;5058598;28;20074;-63
2021/04/30 02:49:47;;;;;;;9.05;7.72;;;7.30;78.00;;;;;;5053074;28;20109;-63
2021/04/30 02:52:16;;;;;;;11.05;7.57;;;7.20;78.50;;;;;;5053440;28;20037;-62
2021/04/30 02:54:42;;;;;;;9.18;7.88;;;6.30;78.60;;;;;;5052866;28;20025;-65
2021/04/30 02:57:08;;;;;;;8.77;7.30;;;7.10;81.10;;;;;;5053394;28;20029;-64
2021/04/30 02:59:34;;;;;;;9.55;7.25;;;7.10;82.30;;;;;;5053169;28;20122;-60
2021/04/30 03:02:02;;;;;;;9.43;7.97;;;7.00;83.70;;;;;;5060645;28;20206;-63
2021/04/30 03:04:28;;;;;;;12.45;8.77;;;6.90;85.20;;;;;;5063796;28;20032;-64
2021/04/30 03:06:53;;;;;;;10.18;8.73;;;6.80;86.30;;;;;;5056224;28;20127;-64
2021/04/30 03:09:19;;;;;;;9.70;8.23;;;7.10;91.80;;;;;;5055663;28;20045;-59
2021/04/30 03:11:45;;;;;;;13.63;10.63;;;6.70;89.00;;;;;;5068890;28;20479;-64
2021/04/30 03:14:11;;;;;;;14.38;9.32;;;6.70;90.20;;;;;;5063733;28;20052;-63
2021/04/30 03:16:37;;;;;;;11.63;9.85;;;6.80;85.00;;;;;;5072083;28;20538;-62
2021/04/30 03:19:03;;;;;;;11.45;8.93;;;6.70;86.20;;;;;;5071038;28;20458;-64
2021/04/30 03:21:28;;;;;;;13.40;10.18;;;6.70;86.30;;;;;;5072095;28;20033;-62
2021/04/30 03:23:54;;;;;;;9.50;8.30;;;6.70;87.30;;;;;;5062512;28;20040;-63
2021/04/30 03:26:20;;;;;;;12.65;9.25;;;6.70;87.20;;;;;;5052370;28;20078;-63
2021/04/30 03:28:45;;;;;;;10.73;9.05;;;6.70;88.50;;;;;;5051340;28;20033;-63
2021/04/30 03:31:11;;;;;;;11.40;9.15;;;6.80;89.30;;;;;;5052341;28;20040;-63
2021/04/30 03:33:37;;;;;;;11.85;9.98;;;6.80;88.40;;;;;;5063305;28;20040;-61
2021/04/30 03:36:04;;;;;;;11.18;9.63;;;6.80;85.90;;;;;;5071719;28;20067;-60
2021/04/30 03:38:30;;;;;;;10.82;9.30;;;6.80;85.60;;;;;;5054184;28;20461;-63
2021/04/30 03:40:56;;;;;;;10.98;8.73;;;6.80;85.00;;;;;;5053420;28;20025;-62
2021/04/30 03:43:21;;;;;;;11.82;10.07;;;6.80;85.30;;;;;;5051692;28;20025;-61
2021/04/30 03:45:50;;;;;;;13.70;9.23;;;6.80;86.50;;;;;;5051137;28;20458;-63
2021/04/30 03:48:16;;;;;;;12.40;9.82;;;6.80;86.60;;;;;;5058009;28;20076;-63
2021/04/30 03:50:42;;;;;;;14.35;10.70;;;6.90;84.30;;;;;;5051714;28;20112;-65
2021/04/30 03:53:08;;;;;;;14.13;9.68;;;6.80;84.00;;;;;;5051624;28;20124;-63
2021/04/30 03:55:33;;;;;;;13.68;10.50;;;6.90;83.80;;;;;;5067564;28;20043;-63
2021/04/30 03:57:59;;;;;;;14.00;9.88;;;6.90;83.40;;;;;;5069717;28;20041;-64
2021/04/30 04:00:24;;;;;;;11.48;9.32;;;6.90;82.20;;;;;;5064004;28;20025;-64
2021/04/30 04:02:50;;;;;;;13.90;10.38;;;6.90;82.80;;;;;;5055344;28;20070;-63
2021/04/30 04:05:16;;;;;;;11.38;9.43;;;6.90;82.70;;;;;;5071435;28;20032;-61
2021/04/30 04:07:42;;;;;;;12.18;9.32;;;6.90;82.60;;;;;;5069772;28;20040;-65
2021/04/30 04:10:08;;;;;;;14.45;10.05;;;7.00;78.50;;;;;;5067981;28;20086;-62
2021/04/30 04:12:34;;;;;;;11.73;9.07;;;7.10;78.40;;;;;;5051424;28;20041;-63
2021/04/30 04:14:59;;;;;;;13.93;8.55;;;7.00;78.70;;;;;;5057676;28;20519;-61
2021/04/30 04:17:25;;;;;;;12.82;8.95;;;7.00;79.60;;;;;;5070464;28;20032;-65
2021/04/30 04:19:51;;;;;;;12.15;8.60;;;6.90;80.10;;;;;;5070123;28;20043;-62
2021/04/30 04:22:17;;;;;;;13.18;9.10;;;6.90;80.20;;;;;;5055328;28;20037;-63
2021/04/30 04:24:43;;;;;;;13.25;9.32;;;6.90;80.90;;;;;;5050339;28;20052;-65
2021/04/30 04:27:10;;;;;;;14.68;9.90;;;6.90;80.40;;;;;;5051492;28;20474;-64
2021/04/30 04:29:36;;;;;;;13.07;9.88;;;6.90;82.10;;;;;;5057865;28;20021;-63
2021/04/30 04:32:03;;;;;;;14.00;9.48;;;6.90;80.70;;;;;;5051266;28;20048;-63
2021/04/30 04:34:29;;;;;;;14.65;9.55;;;6.90;80.30;;;;;;5057393;28;20056;-61
2021/04/30 04:36:54;;;;;;;12.57;9.10;;;6.90;80.70;;;;;;5068022;28;20469;-62
2021/04/30 04:39:20;;;;;;;13.63;10.68;;;6.90;81.30;;;;;;5066355;28;20057;-60
2021/04/30 04:41:46;;;;;;;14.80;10.35;;;7.00;79.60;;;;;;5050664;28;20055;-64
2021/04/30 04:44:13;;;;;;;11.75;9.77;;;7.00;79.50;;;;;;5060898;28;20032;-64
2021/04/30 04:46:39;;;;;;;15.60;10.30;;;7.00;79.00;;;;;;5059817;28;20393;-66
2021/04/30 04:49:05;;;;;;;12.48;9.32;;;7.10;78.00;;;;;;5053818;28;20021;-65
2021/04/30 04:51:32;;;;;;;15.05;9.73;;;7.20;76.90;;;;;;5049765;28;20025;-62
2021/04/30 04:53:58;;;;;;;10.15;8.65;;;7.20;77.30;;;;;;5049958;28;20032;-61
2021/04/30 04:56:26;;;;;;;12.57;9.88;;;7.20;77.50;;;;;;5051168;28;20125;-65
2021/04/30 04:58:55;;;;;;;12.60;9.68;;;7.10;78.30;;;;;;5049686;28;20153;-62
2021/04/30 05:01:22;;;;;;;11.05;9.25;;;7.20;78.80;;;;;;5050053;28;20045;-62
2021/04/30 05:03:48;;;;;;;14.60;10.35;;;7.20;77.10;;;;;;5061719;28;20497;-63
2021/04/30 05:06:13;;;;;;;12.63;9.85;;;7.30;75.80;;;;;;5070401;28;20033;-62
2021/04/30 05:08:40;;;;;;;12.93;9.88;;;7.20;76.40;;;;;;5061402;28;20033;-66
2021/04/30 05:11:05;;;;;;;14.15;10.18;;;7.20;75.70;;;;;;5052774;28;20037;-65
2021/04/30 05:13:32;;;;;;;15.55;10.25;;;7.20;76.80;;;;;;5070328;28;20036;-63
2021/04/30 05:16:02;;;;;;;13.18;9.40;;;7.30;76.30;;;;;;5068852;28;20041;-62
2021/04/30 05:18:29;;;;;;;12.85;10.10;;;7.20;76.70;;;;;;5059723;28;20111;-62
2021/04/30 05:20:55;;;;;;;16.05;10.02;;;7.30;76.10;;;;;;5053524;28;20039;-61
2021/04/30 05:23:21;;;;;;;22.50;9.30;;;7.30;76.00;;;;;;5049897;28;20040;-63
2021/04/30 05:25:48;;;;;;;12.82;10.52;;;7.30;77.00;;;;;;5050074;28;20052;-60
2021/04/30 05:28:15;;;;;;;12.38;10.32;;;7.30;77.20;;;;;;5050651;28;20059;-61
2021/04/30 05:30:40;;;;;;;15.32;10.68;;;7.40;76.50;;;;;;5052251;28;20549;-64
2021/04/30 05:33:06;;;;;;;13.38;10.55;;;7.40;76.70;;;;;;5069248;28;20119;-63
2021/04/30 05:35:32;;;;;;;16.92;11.20;;;7.40;76.80;;;;;;5067617;28;20119;-64
2021/04/30 05:37:58;;;;;;;13.85;10.93;;;7.50;76.60;;;;;;5052593;28;20883;-63
2021/04/30 05:40:24;;;;;;;15.00;11.63;;;7.50;77.10;;;;;;5049926;28;20099;-63
2021/04/30 05:42:50;;;;;;;14.40;10.50;;;7.60;77.20;;;;;;5049899;28;20037;-63
2021/04/30 05:45:16;;;;;;;16.45;11.52;;;7.60;78.20;;;;;;5055902;28;20037;-63
2021/04/30 05:47:43;;;;;;;15.82;10.75;;;7.50;79.50;;;;;;5056146;28;20025;-66
2021/04/30 05:50:09;;;;;;;14.02;11.50;;;7.60;79.40;;;;;;5058473;28;20025;-64
2021/04/30 05:52:35;;;;;;;14.57;11.60;;;7.60;78.10;;;;;;5060695;28;20491;-60
2021/04/30 05:55:01;;;;;;;16.20;10.75;;;7.70;78.20;;;;;;5068807;28;20082;-63
2021/04/30 05:57:27;;;;;;;16.20;12.13;;;7.80;77.60;;;;;;5058990;28;20112;-61
2021/04/30 05:59:52;;;;;;;14.18;11.68;;;7.80;75.80;;;;;;5048932;28;20139;-60
2021/04/30 06:02:19;;;;;;;15.55;10.85;;;7.90;76.30;;;;;;5050072;28;20108;-62
2021/04/30 06:04:45;;;;;;;14.82;10.88;;;8.00;77.30;;;;;;5050756;28;20559;-61
2021/04/30 06:07:11;;;;;;;14.75;10.48;;;8.10;73.40;;;;;;5064756;28;20104;-60
2021/04/30 06:09:36;;;;;;;15.93;10.50;;;8.10;72.60;;;;;;5049829;28;20033;-61
2021/04/30 06:12:02;;;;;;;13.40;10.82;;;8.10;72.40;;;;;;5052054;28;20048;-62
2021/04/30 06:14:32;;;;;;;12.70;8.75;;;8.10;71.80;;;;;;5054066;28;20033;-62
2021/04/30 06:16:58;;;;;;;11.95;9.32;;;8.10;72.20;;;;;;5051859;28;20033;-62
2021/04/30 06:19:24;;;;;;;15.25;9.07;;;8.20;72.10;;;;;;5062713;28;20036;-62
2021/04/30 06:21:51;;;;;;;11.50;8.88;;;8.20;70.80;;;;;;5057873;28;20027;-59
2021/04/30 06:24:16;;;;;;;13.00;9.10;;;8.30;70.60;;;;;;5073107;28;20033;-60
2021/04/30 06:26:42;;;;;;;11.90;9.30;;;8.20;71.00;;;;;;5063203;28;20029;-64
2021/04/30 06:29:08;;;;;;;14.50;9.73;;;8.20;70.40;;;;;;5053325;28;20447;-60
2021/04/30 06:31:35;;;;;;;15.60;9.65;;;8.20;71.80;;;;;;5054187;28;20056;-61
2021/04/30 06:34:01;;;;;;;11.25;8.68;;;8.20;71.30;;;;;;5061090;28;20040;-64
2021/04/30 06:36:26;;;;;;;12.60;9.65;;;8.30;70.80;;;;;;5067472;28;20025;-62
2021/04/30 06:38:52;;;;;;;16.33;9.88;;;8.20;71.30;;;;;;5073997;28;20388;-62
2021/04/30 06:41:18;;;;;;;15.60;9.38;;;8.30;70.60;;;;;;5062750;28;20024;-64
2021/04/30 06:43:43;;;;;;;14.48;9.43;;;8.20;70.00;;;;;;5067199;28;20082;-66
2021/04/30 06:46:09;;;;;;;13.23;9.30;;;8.20;70.50;;;;;;5054384;28;20488;-62
2021/04/30 06:48:34;;;;;;;11.60;8.85;;;8.20;70.50;;;;;;5059475;28;20035;-65
2021/04/30 06:51:00;;;;;;;12.25;9.45;;;8.10;71.00;;;;;;5056767;28;20063;-60
2021/04/30 06:53:26;;;;;;;11.95;9.45;;;8.00;71.30;;;;;;5057688;28;20053;-62
2021/04/30 06:55:51;;;;;;;13.93;9.77;;;8.00;71.40;;;;;;5055799;28;20120;-65
2021/04/30 06:58:17;;;;;;;11.65;9.45;;;8.00;72.00;;;;;;5076841;28;20389;-64
2021/04/30 07:00:44;;;;;;;10.95;9.18;;;8.00;71.80;;;;;;5067556;28;20036;-67
2021/04/30 07:03:09;;;;;;;14.07;9.50;;;8.00;71.70;;;;;;5070691;28;20044;-63
2021/04/30 07:05:35;;;;;;;11.90;9.35;;;8.00;72.60;;;;;;5069842;28;20034;-62
2021/04/30 07:08:04;;;;;;;13.85;10.13;;;7.90;73.40;;;;;;5068954;28;20107;-62
2021/04/30 07:10:31;;;;;;;12.23;9.80;;;7.90;72.60;;;;;;5074769;28;20115;-66
2021/04/30 07:12:57;;;;;;;13.65;9.95;;;7.90;73.10;;;;;;5057087;28;20041;-65
2021/04/30 07:15:23;;;;;;;17.60;9.77;;;7.80;72.80;;;;;;5061124;28;20485;-64
2021/04/30 07:17:49;;;;;;;12.57;9.65;;;7.80;73.80;;;;;;5056120;28;20123;-65
2021/04/30 07:20:15;;;;;;;13.70;9.63;;;7.80;74.10;;;;;;5063466;28;20178;-67
2021/04/30 07:22:41;;;;;;;13.25;10.20;;;7.90;73.80;;;;;;5052400;28;20400;-63
2021/04/30 07:25:07;;;;;;;14.18;10.52;;;7.90;73.30;;;;;;5073079;28;20105;-64
2021/04/30 07:27:33;;;;;;;16.40;10.40;;;8.00;73.70;;;;;;5072567;28;20043;-64
2021/04/30 07:29:59;;;;;;;13.02;9.02;;;8.00;73.70;;;;;;5076504;28;20024;-59
2021/04/30 07:32:25;;;;;;;14.20;10.43;;;8.00;74.90;;;;;;5060401;28;20040;-63
2021/04/30 07:34:50;;;;;;;16.35;10.65;;;8.10;74.10;;;;;;5059646;28;20037;-61
2021/04/30 07:37:16;;;;;;;15.05;9.43;;;8.10;74.30;;;;;;5060281;28;20032;-61
2021/04/30 07:39:43;;;;;;;13.00;9.73;;;8.10;73.70;;;;;;5064636;28;20064;-63
2021/04/30 07:42:09;;;;;;;11.57;9.73;;;8.20;74.00;;;;;;5063089;28;20086;-62
2021/04/30 07:44:35;;;;;;;16.25;10.27;;;8.20;74.10;;;;;;5062885;28;20051;-63
2021/04/30 07:47:01;;;;;;;16.25;9.90;;;8.30;72.90;;;;;;5065323;28;20458;-60
2021/04/30 07:49:27;;;;;;;14.20;10.23;;;8.20;73.00;;;;;;5065011;28;20033;-62
2021/04/30 07:51:53;;;;;;;14.68;9.57;;;8.20;73.60;;;;;;5059143;28;20090;-66
2021/04/30 07:54:18;;;;;;;14.35;9.23;;;8.20;73.40;;;;;;5061088;28;20374;-65
2021/04/30 07:56:45;;;;;;;13.05;9.52;;;8.20;74.80;;;;;;5058837;28;20033;-68
2021/04/30 07:59:11;;;;;;;13.60;10.05;;;8.20;74.60;;;;;;5062542;28;20547;-63
2021/04/30 08:01:37;;;;;;;13.52;10.45;;;8.20;75.30;;;;;;5062391;28;20024;-61
2021/04/30 08:04:03;;;;;;;16.13;10.40;;;8.30;74.70;;;;;;5063768;28;20035;-62
2021/04/30 08:06:29;;;;;;;13.25;10.35;;;8.20;75.60;;;;;;5064111;28;20060;-66
2021/04/30 08:08:54;;;;;;;11.80;8.77;;;8.30;73.80;;;;;;5061821;28;20040;-66
2021/04/30 08:11:20;;;;;;;12.43;10.20;;;8.20;74.60;;;;;;5061604;28;20047;-62
2021/04/30 08:13:46;;;;;;;15.90;10.73;;;8.20;75.00;;;;;;5058420;28;20401;-66
2021/04/30 08:16:12;;;;;;;17.52;10.35;;;8.20;75.30;;;;;;5066088;28;20488;-60
2021/04/30 08:18:39;;;;;;;14.52;10.15;;;8.20;76.30;;;;;;5060284;28;20478;-62
2021/04/30 08:21:05;;;;;;;13.30;9.98;;;8.20;76.00;;;;;;5062194;28;20190;-64
2021/04/30 08:23:31;;;;;;;12.45;9.57;;;8.20;76.20;;;;;;5064855;28;20507;-64
2021/04/30 08:25:57;;;;;;;11.73;10.02;;;8.10;76.50;;;;;;5062056;28;20063;-60
2021/04/30 08:28:23;;;;;;;16.38;9.73;;;8.10;76.90;;;;;;5063386;28;20434;-61
2021/04/30 08:30:49;;;;;;;16.23;10.40;;;8.20;76.90;;;;;;5060522;28;20036;-64
2021/04/30 08:33:15;;;;;;;17.55;10.63;;;8.20;76.70;;;;;;5062201;28;20033;-63
2021/04/30 08:35:40;;;;;;;12.98;9.63;;;8.20;76.10;;;;;;5058533;28;20486;-65
2021/04/30 08:38:06;;;;;;;14.20;9.73;;;8.20;75.90;;;;;;5069066;28;20085;-63
2021/04/30 08:40:32;;;;;;;12.48;9.80;;;8.20;76.60;;;;;;5067296;28;20029;-63
2021/04/30 08:42:58;;;;;;;15.98;10.60;;;8.20;76.40;;;;;;5061268;28;20060;-61
2021/04/30 08:45:25;;;;;;;16.10;10.48;;;8.30;76.60;;;;;;5065182;28;20032;-61
2021/04/30 08:47:51;;;;;;;14.60;9.40;;;8.40;75.40;;;;;;5061479;28;20378;-66
2021/04/30 08:50:17;;;;;;;13.77;9.52;;;8.50;74.50;;;;;;5064290;28;20023;-62
2021/04/30 08:52:43;;;;;;;13.25;10.18;;;8.50;74.90;;;;;;5061891;28;20474;-63
2021/04/30 08:55:20;;;;;;;14.48;9.70;;;8.70;74.20;;;;;;5058955;28;20032;-62
2021/04/30 08:57:52;;;;;;;15.32;10.15;;;8.80;73.20;;;;;;5075522;28;20020;-65
2021/04/30 09:00:18;;;;;;;11.95;9.40;;;8.80;73.20;;;;;;5071519;28;20065;-62
2021/04/30 09:02:45;;;;;;;15.60;9.50;;;8.80;72.00;;;;;;5055758;28;20492;-66
2021/04/30 09:05:20;;;;;;;15.95;10.48;;;8.80;71.30;;;;;;5061438;28;20158;-62
2021/04/30 09:07:46;;;;;;;11.63;9.27;;;8.90;71.70;;;;;;5055725;28;20482;-66
2021/04/30 09:10:14;;;;;;;13.32;9.40;;;8.80;72.00;;;;;;5069324;28;20044;-60
2021/04/30 09:12:41;;;;;;;11.82;9.80;;;8.90;72.30;;;;;;5064683;28;20084;-62
2021/04/30 09:15:17;;;;;;;20.95;10.70;;;8.90;71.00;;;;;;5066534;28;20171;-64
2021/04/30 09:17:43;;;;;;;19.80;11.07;;;9.00;72.10;;;;;;5053663;28;20033;-65
2021/04/30 09:20:09;;;;;;;13.13;10.40;;;9.00;72.60;;;;;;5065799;28;20025;-63
2021/04/30 09:22:41;;;;;;;14.85;10.23;;;9.00;71.90;;;;;;5074725;28;20055;-62
2021/04/30 09:25:12;;;;;;;12.63;9.68;;;9.00;71.60;;;;;;5074919;28;20675;-64
2021/04/30 09:27:50;;;;;;;14.23;9.98;;;9.00;71.70;;;;;;5063223;28;20082;-60
2021/04/30 09:30:25;;;;;;;17.70;11.20;;;8.90;72.10;;;;;;5055242;28;20035;-60
2021/04/30 09:33:00;;;;;;;14.27;10.40;;;8.80;72.60;;;;;;5055014;28;20140;-63
2021/04/30 09:35:27;;;;;;;13.27;10.05;;;8.80;72.90;;;;;;5055878;28;20485;-62
2021/04/30 09:37:53;;;;;;;14.00;11.05;;;8.80;73.80;;;;;;5059494;28;20059;-64
2021/04/30 09:40:29;;;;;;;15.32;11.30;;;8.80;74.30;;;;;;5067571;28;20028;-64
2021/04/30 09:43:06;;;;;;;13.95;11.57;;;8.90;74.20;;;;;;5057441;28;20032;-61
2021/04/30 09:45:32;;;;;;;14.98;11.48;;;8.90;74.60;;;;;;5064635;28;20025;-59
2021/04/30 09:48:03;;;;;;;15.68;10.88;;;9.00;74.30;;;;;;5066312;28;20496;-62
2021/04/30 09:50:29;;;;;;;14.65;11.30;;;9.00;74.00;;;;;;5076711;28;20446;-63
2021/04/30 09:52:57;;;;;;;16.13;11.20;;;9.00;74.20;;;;;;5063288;28;20117;-62
2021/04/30 09:55:47;;;;;;;18.02;11.20;;;9.00;74.10;;;;;;5065791;28;20033;-61
2021/04/30 09:58:29;;;;;;;19.25;13.43;;;9.10;73.80;;;;;;5065634;28;20072;-57
2021/04/30 10:01:00;;;;;;;16.77;12.35;;;9.10;74.30;;;;;;5069258;28;20035;-60
2021/04/30 10:03:28;;;;;;;14.50;11.88;;;9.10;74.20;;;;;;5071221;28;20028;-63
2021/04/30 10:06:02;;;;;;;22.00;11.90;;;9.00;75.50;;;;;;5065236;28;20033;-62
2021/04/30 10:08:29;;;;;;;17.02;12.95;;;8.90;76.00;;;;;;5071849;28;20479;-61
2021/04/30 10:10:55;;;;;;;19.02;12.27;;;8.90;76.00;;;;;;5073280;28;20111;-60
2021/04/30 10:13:21;;;;;;;19.20;13.32;;;9.00;75.20;;;;;;5058937;28;20120;-58
2021/04/30 10:15:46;;;;;;;18.10;12.50;;;9.00;75.40;;;;;;5058013;28;20027;-62
2021/04/30 10:18:17;;;;;;;18.08;13.02;;;8.90;76.60;;;;;;5070801;28;20436;-59
2021/04/30 10:20:45;;;;;;;18.02;13.35;;;8.90;77.20;;;;;;5059501;28;20033;-59
2021/04/30 10:23:16;;;;;;;19.05;14.32;;;8.90;78.20;;;;;;5061912;28;20040;-59
2021/04/30 10:25:47;;;;;;;18.33;13.07;;;8.90;79.30;;;;;;5061645;28;20029;-60
2021/04/30 10:28:17;;;;;;;18.92;13.43;;;8.90;79.20;;;;;;5071688;28;20105;-61
2021/04/30 10:30:54;;;;;;;19.90;13.50;;;8.80;79.00;;;;;;5061612;28;20032;-60
2021/04/30 10:33:34;;;;;;;20.00;14.30;;;8.70;80.60;;;;;;5070022;28;20031;-62
2021/04/30 10:36:21;;;;;;;20.80;14.55;;;8.70;80.30;;;;;;5065079;28;20033;-60
2021/04/30 10:38:53;;;;;;;24.67;15.98;;;8.70;81.40;;;;;;5072114;28;20051;-62
2021/04/30 10:41:35;;;;;;;21.98;16.10;;;8.50;83.60;;;;;;5066792;28;20037;-61
2021/04/30 10:44:22;;;;;;;27.10;16.38;;;8.30;86.80;;;;;;5066960;28;20470;-61
2021/04/30 10:47:14;;;;;;;26.63;17.02;;;8.20;87.70;;;;;;5072711;28;20419;-63
2021/04/30 10:49:41;;;;;;;23.60;17.60;;;8.20;88.00;;;;;;5064093;28;20032;-60
2021/04/30 10:54:39;;;;;;;23.13;16.90;;;8.10;89.80;;;;;;5071030;28;20033;-60
2021/04/30 10:57:09;;;;;;;23.88;16.80;;;8.10;90.50;;;;;;5059891;28;20029;-66
2021/04/30 10:59:40;;;;;;;26.55;19.85;;;8.10;91.10;;;;;;5072571;28;20430;-72
2021/04/30 11:02:35;;;;;;;23.85;18.48;;;8.00;92.50;;;;;;5066919;28;20033;-67
2021/04/30 11:05:11;;;;;;;25.88;19.58;;;7.80;93.50;;;;;;5064995;28;20422;-70
2021/04/30 11:07:47;;;;;;;27.50;20.23;;;7.70;94.20;;;;;;5066961;28;20025;-70
2021/04/30 11:10:27;;;;;;;26.90;19.17;;;7.50;96.60;;;;;;5072452;28;20029;-73
2021/04/30 11:12:53;;;;;;;;;;;7.40;99.60;;;;;;5076555;28;20040;-72
2021/04/30 11:15:18;;;;;;;28.60;20.92;;;7.20;99.10;;;;;;5054976;28;20268;-71
2021/04/30 11:17:53;;;;;;;24.77;19.27;;;7.00;99.90;;;;;;5055481;28;20445;-72
2021/04/30 11:20:21;;;;;;;29.20;20.40;;;6.80;99.90;;;;;;5065018;28;20035;-72
2021/04/30 11:23:19;;;;;;;27.05;18.45;;;6.60;99.90;;;;;;5068478;28;20036;-71
2021/04/30 11:25:57;;;;;;;29.52;21.40;;;6.40;99.90;;;;;;5066176;28;20021;-75
2021/04/30 11:28:45;;;;;;;27.83;20.85;;;6.20;99.90;;;;;;5078343;28;20020;-64
2021/04/30 11:31:16;;;;;;;36.22;22.95;;;6.10;99.90;;;;;;5064575;28;20040;-67
2021/04/30 11:34:02;;;;;;;35.80;22.67;;;6.00;99.90;;;;;;5080143;28;20366;-64
2021/04/30 11:36:28;;;;;;;32.13;23.17;;;6.00;99.90;;;;;;5054924;28;20033;-64
2021/04/30 11:38:56;;;;;;;32.75;22.38;;;6.00;99.90;;;;;;5054651;28;20044;-64
2021/04/30 11:41:22;;;;;;;29.13;21.50;;;6.10;99.90;;;;;;5078210;28;20048;-62
2021/04/30 11:43:50;;;;;;;33.08;22.10;;;6.00;99.90;;;;;;5062207;28;20494;-62
2021/04/30 11:46:15;;;;;;;30.65;20.77;;;5.90;99.90;;;;;;5072607;28;20119;-63
2021/04/30 11:48:45;;;;;;;32.28;21.83;;;5.90;99.90;;;;;;5062874;28;20448;-63
2021/04/30 11:51:13;;;;;;;30.35;20.90;;;5.80;99.90;;;;;;5062184;28;20466;-63
2021/04/30 11:53:42;;;;;;;31.85;21.08;;;5.80;99.90;;;;;;5059844;28;20236;-62
2021/04/30 11:56:08;;;;;;;29.65;20.92;;;5.80;99.90;;;;;;5066290;28;20382;-63
2021/04/30 11:58:42;;;;;;;28.98;21.13;;;5.70;99.90;;;;;;5057532;28;20052;-63
2021/04/30 12:01:10;;;;;;;30.15;21.98;;;5.70;99.90;;;;;;5059903;28;20021;-62
2021/04/30 12:03:46;;;;;;;31.58;22.85;;;5.60;99.90;;;;;;5060913;28;20029;-63
2021/04/30 12:06:15;;;;;;;29.10;21.83;;;5.60;99.90;;;;;;5074199;28;20035;-62
2021/04/30 12:08:42;;;;;;;33.17;22.98;;;5.50;99.90;;;;;;5083565;28;20028;-63
2021/04/30 12:11:08;;;;;;;30.75;22.88;;;5.50;99.90;;;;;;5082106;28;20093;-62
2021/04/30 12:13:40;;;;;;;36.33;24.08;;;5.50;99.90;;;;;;5059318;28;20036;-61
2021/04/30 12:16:16;;;;;;;28.70;21.27;;;5.50;99.90;;;;;;5066749;28;20386;-61
2021/04/30 12:18:42;;;;;;;31.92;20.23;;;5.60;99.90;;;;;;5077197;28;20099;-62
2021/04/30 12:21:08;;;;;;;26.50;18.30;;;5.60;99.90;;;;;;5066263;28;20056;-61
2021/04/30 12:23:33;;;;;;;26.80;18.60;;;5.60;99.90;;;;;;5067754;28;20060;-61
2021/04/30 12:25:59;;;;;;;32.95;19.50;;;5.60;99.90;;;;;;5066888;28;20377;-61
2021/04/30 12:28:30;;;;;;;31.58;19.95;;;5.60;99.90;;;;;;5075014;28;20040;-63
2021/04/30 12:31:04;;;;;;;28.52;19.20;;;5.50;99.90;;;;;;5055651;28;20035;-62
2021/04/30 12:33:49;;;;;;;27.30;20.13;;;5.50;99.90;;;;;;5066685;28;20029;-60
2021/04/30 12:36:31;;;;;;;27.83;18.38;;;5.40;99.90;;;;;;5067859;28;20029;-62
2021/04/30 12:39:09;;;;;;;24.60;16.83;;;5.50;99.90;;;;;;5059299;28;20040;-60
2021/04/30 12:41:39;;;;;;;25.05;18.90;;;5.50;99.90;;;;;;5063988;28;20494;-63
2021/04/30 12:44:10;;;;;;;26.45;18.90;;;5.50;99.90;;;;;;5053587;28;20039;-60
2021/04/30 12:46:39;;;;;;;33.67;19.98;;;5.60;99.90;;;;;;5053710;28;20396;-65
2021/04/30 12:49:09;;;;;;;29.98;19.67;;;5.50;99.90;;;;;;5053746;28;20063;-61
2021/04/30 12:51:37;;;;;;;30.13;19.98;;;5.60;99.90;;;;;;5069601;28;20453;-65